ADDS METAR Data

Data at: 0533 UTC 19 Jan 2018

METAR for:CYQI (Yarmouth Arpt, NS, CN)
Text:CYQI 190500Z 02006KT 15SM OVC026 M04/M06 A2979 RMK SC8 SLP092
Temperature: -4.0°C ( 25°F)
Dewpoint: -6.0°C ( 21°F) [RH = 86%]
Pressure (altimeter):29.79 inches Hg (1008.9 mb) [Sea level pressure: 1009.2 mb]
Winds:from the NNE (20 degrees) at 7 MPH (6 knots; 3.1 m/s)
Visibility: 15 sm ( 24 km)
Ceiling:2600 feet AGL
Clouds: overcast cloud deck at 2600 feet AGL